Time;durP1;ratioP1;P1;durP2;ratioP2;P2;SDS_P1;SDS_P2;PMS_P1;PMS_P2;Temp;Humidity;BMP_temperature;BMP_pressure;BME280_temperature;BME280_humidity;BME280_pressure;Samples;Min_cycle;Max_cycle;Signal;HPM_P1;HPM_P2
2022/06/06 00:01:17;;;;;;;5.13;4.83;;;;;;;;;;5052886;28;20451;-65
2022/06/06 00:03:44;;;;;;;5.87;5.40;;;;;;;;;;5052965;28;20448;-65
2022/06/06 00:06:12;;;;;;;5.87;5.47;;;;;;;;;;5052889;28;20448;-65
2022/06/06 00:08:40;;;;;;;5.93;5.43;;;;;;;;;;5052839;28;20448;-65
2022/06/06 00:11:09;;;;;;;6.17;5.77;;;;;;;;;;5052675;28;20859;-65
2022/06/06 00:13:37;;;;;;;5.73;5.33;;;;;;;;;;5052881;28;20542;-65
2022/06/06 00:16:05;;;;;;;5.10;4.73;;;;;;;;;;5052838;28;20448;-65
2022/06/06 00:18:32;;;;;;;5.53;5.13;;;;;;;;;;5052694;28;20962;-65
2022/06/06 00:20:59;;;;;;;5.73;5.30;;;;;;;;;;5052730;28;20448;-65
2022/06/06 00:23:26;;;;;;;6.23;5.43;;;;;;;;;;5052540;28;20490;-65
2022/06/06 00:25:54;;;;;;;5.20;4.90;;;;;;;;;;5052803;28;20455;-65
2022/06/06 00:28:21;;;;;;;5.40;5.10;;;;;;;;;;5053129;28;20495;-65
2022/06/06 00:30:49;;;;;;;5.80;5.40;;;;;;;;;;5052772;28;20957;-64
2022/06/06 00:36:01;;;;;;;5.20;4.90;;;;;;;;;;5052567;28;20439;-65
2022/06/06 00:38:29;;;;;;;5.83;5.40;;;;;;;;;;5052500;28;21003;-65
2022/06/06 00:40:57;;;;;;;5.83;5.40;;;;;;;;;;5052583;28;20448;-65
2022/06/06 00:43:23;;;;;;;6.53;5.93;;;;;;;;;;5052250;28;20997;-65
2022/06/06 00:45:52;;;;;;;5.60;5.30;;;;;;;;;;5052516;28;20453;-65
2022/06/06 00:48:22;;;;;;;5.90;5.07;;;;;;;;;;5052375;28;20546;-65
2022/06/06 00:50:52;;;;;;;5.23;4.93;;;;;;;;;;5052659;28;20792;-65
2022/06/06 00:53:21;;;;;;;5.50;5.20;;;;;;;;;;5052525;28;20570;-65
2022/06/06 00:55:50;;;;;;;5.20;4.90;;;;;;;;;;5052473;28;20816;-65
2022/06/06 00:58:20;;;;;;;5.40;5.10;;;;;;;;;;5052394;28;20453;-65
2022/06/06 01:00:48;;;;;;;5.50;5.20;;;;;;;;;;5052346;28;20448;-65
2022/06/06 01:03:18;;;;;;;6.37;6.00;;;;;;;;;;5053572;28;20506;-65
2022/06/06 01:05:46;;;;;;;6.33;5.73;;;;;;;;;;5056192;28;20452;-65
2022/06/06 01:08:15;;;;;;;5.73;5.43;;;;;;;;;;5056091;28;20535;-65
2022/06/06 01:10:42;;;;;;;5.93;5.43;;;;;;;;;;5055995;28;20458;-65
2022/06/06 01:13:09;;;;;;;6.07;5.77;;;;;;;;;;5055962;28;20455;-65
2022/06/06 01:15:42;;;;;;;5.60;5.20;;;;;;;;;;5055742;28;20455;-65
2022/06/06 01:18:13;;;;;;;6.33;5.93;;;;;;;;;;5056029;28;20540;-65
2022/06/06 01:20:59;;;;;;;6.00;5.70;;;;;;;;;;5055910;28;20459;-65
2022/06/06 01:23:46;;;;;;;5.80;5.50;;;;;;;;;;5055658;28;20574;-65
2022/06/06 01:26:23;;;;;;;6.23;5.83;;;;;;;;;;5055640;28;20847;-65
2022/06/06 01:28:53;;;;;;;6.20;5.80;;;;;;;;;;5055769;28;20448;-65
2022/06/06 01:31:22;;;;;;;7.37;6.77;;;;;;;;;;5055685;28;20458;-65
2022/06/06 01:33:51;;;;;;;6.83;6.00;;;;;;;;;;5055489;28;20452;-65
2022/06/06 01:36:18;;;;;;;6.37;5.97;;;;;;;;;;5055420;28;20445;-65
2022/06/06 01:38:45;;;;;;;6.67;6.17;;;;;;;;;;5055613;28;20479;-65
2022/06/06 01:41:14;;;;;;;6.60;6.10;;;;;;;;;;5055489;28;20543;-65
2022/06/06 01:43:45;;;;;;;8.03;6.10;;;;;;;;;;5055200;28;20495;-65
2022/06/06 01:46:16;;;;;;;6.87;6.37;;;;;;;;;;5055364;28;20543;-65
2022/06/06 01:48:44;;;;;;;6.20;5.90;;;;;;;;;;5055247;28;20958;-65
2022/06/06 01:51:13;;;;;;;6.40;5.90;;;;;;;;;;5055149;28;20451;-65
2022/06/06 01:53:40;;;;;;;7.60;6.20;;;;;;;;;;5055072;28;20955;-65
2022/06/06 01:56:08;;;;;;;7.20;6.63;;;;;;;;;;5055169;28;20539;-65
2022/06/06 01:58:35;;;;;;;7.10;6.60;;;;;;;;;;5054970;28;21005;-64
2022/06/06 02:01:02;;;;;;;6.50;6.10;;;;;;;;;;5054987;28;21037;-65
2022/06/06 02:03:31;;;;;;;7.00;6.60;;;;;;;;;;5054809;28;20572;-65
2022/06/06 02:05:58;;;;;;;7.37;6.87;;;;;;;;;;5055048;28;20463;-65
2022/06/06 02:08:25;;;;;;;7.80;7.30;;;;;;;;;;5054933;28;20486;-65
2022/06/06 02:10:52;;;;;;;7.80;7.37;;;;;;;;;;5054903;28;20474;-65
2022/06/06 02:13:19;;;;;;;8.37;7.77;;;;;;;;;;5054830;28;20856;-65
2022/06/06 02:15:46;;;;;;;8.30;7.80;;;;;;;;;;5054046;28;20445;-64
2022/06/06 02:18:13;;;;;;;8.07;7.57;;;;;;;;;;5054596;28;20444;-65
2022/06/06 02:20:41;;;;;;;9.73;8.00;;;;;;;;;;5054781;28;20448;-65
2022/06/06 02:23:08;;;;;;;8.10;7.50;;;;;;;;;;5054667;28;20578;-65
2022/06/06 02:25:36;;;;;;;8.03;7.43;;;;;;;;;;5054609;28;20454;-65
2022/06/06 02:28:04;;;;;;;8.37;7.73;;;;;;;;;;5054538;28;20452;-64
2022/06/06 02:30:33;;;;;;;7.47;7.10;;;;;;;;;;5054356;28;20452;-65
2022/06/06 02:33:00;;;;;;;8.03;7.57;;;;;;;;;;5054348;28;20514;-65
2022/06/06 02:35:28;;;;;;;8.13;7.63;;;;;;;;;;5054490;28;20510;-65
2022/06/06 02:37:57;;;;;;;7.57;7.07;;;;;;;;;;5054548;28;20543;-65
2022/06/06 02:40:25;;;;;;;8.20;7.73;;;;;;;;;;5054291;28;20547;-64
2022/06/06 02:42:52;;;;;;;8.30;7.57;;;;;;;;;;5054080;28;20475;-64
2022/06/06 02:45:19;;;;;;;8.80;8.20;;;;;;;;;;5054363;28;20455;-65
2022/06/06 02:47:47;;;;;;;8.70;8.10;;;;;;;;;;5054261;28;20480;-65
2022/06/06 02:50:16;;;;;;;9.30;8.60;;;;;;;;;;5054164;28;20452;-64
2022/06/06 02:52:43;;;;;;;8.47;7.77;;;;;;;;;;5054075;28;20542;-64
2022/06/06 02:55:12;;;;;;;9.00;8.50;;;;;;;;;;5054022;28;20449;-65
2022/06/06 02:57:39;;;;;;;8.63;8.13;;;;;;;;;;5053870;28;20527;-65
2022/06/06 03:00:08;;;;;;;8.80;8.30;;;;;;;;;;5054044;28;20444;-65
2022/06/06 03:02:36;;;;;;;8.10;7.60;;;;;;;;;;5053847;28;20558;-65
2022/06/06 03:05:03;;;;;;;8.63;8.13;;;;;;;;;;5054160;28;20459;-65
2022/06/06 03:07:33;;;;;;;9.33;8.73;;;;;;;;;;5053747;28;20451;-65
2022/06/06 03:10:03;;;;;;;9.23;8.53;;;;;;;;;;5053636;28;20451;-65
2022/06/06 03:12:37;;;;;;;9.47;8.80;;;;;;;;;;5053919;28;20527;-64
2022/06/06 03:15:14;;;;;;;10.87;9.90;;;;;;;;;;5053731;28;21055;-63
2022/06/06 03:20:47;;;;;;;10.60;9.83;;;;;;;;;;5053805;28;20947;-62
2022/06/06 03:23:28;;;;;;;12.33;11.00;;;;;;;;;;5053540;28;20484;-62
2022/06/06 03:25:59;;;;;;;11.70;10.70;;;;;;;;;;5052865;28;20948;-62
2022/06/06 03:28:30;;;;;;;12.63;11.60;;;;;;;;;;5053128;28;20448;-62
2022/06/06 03:31:01;;;;;;;13.10;12.20;;;;;;;;;;5053264;28;20459;-63
2022/06/06 03:33:33;;;;;;;12.80;11.83;;;;;;;;;;5053519;28;20452;-63
2022/06/06 03:36:03;;;;;;;13.03;12.10;;;;;;;;;;5053210;28;20452;-62
2022/06/06 03:38:35;;;;;;;15.70;14.40;;;;;;;;;;5053387;28;20456;-62
2022/06/06 03:41:04;;;;;;;14.23;13.03;;;;;;;;;;5053230;28;20815;-62
2022/06/06 03:43:36;;;;;;;14.40;13.30;;;;;;;;;;5053125;28;20492;-63
2022/06/06 03:46:09;;;;;;;15.30;14.10;;;;;;;;;;5053341;28;20450;-62
2022/06/06 03:48:40;;;;;;;14.03;13.03;;;;;;;;;;5053223;28;20569;-62
2022/06/06 03:51:14;;;;;;;15.07;13.97;;;;;;;;;;5053129;28;20898;-62
2022/06/06 03:53:46;;;;;;;15.63;14.43;;;;;;;;;;5053026;28;20461;-62
2022/06/06 03:56:20;;;;;;;14.93;13.60;;;;;;;;;;5052949;28;20936;-62
2022/06/06 03:58:48;;;;;;;15.80;14.50;;;;;;;;;;5053165;28;20459;-62
2022/06/06 04:01:16;;;;;;;17.13;15.63;;;;;;;;;;5052964;28;20448;-62
2022/06/06 04:03:44;;;;;;;15.67;14.53;;;;;;;;;;5052917;28;20491;-62
2022/06/06 04:06:11;;;;;;;16.03;14.77;;;;;;;;;;5052846;28;20490;-62
2022/06/06 04:08:38;;;;;;;16.83;14.97;;;;;;;;;;5052773;28;20440;-63
2022/06/06 04:11:14;;;;;;;15.90;14.60;;;;;;;;;;5052741;28;20962;-63
2022/06/06 04:13:44;;;;;;;14.80;13.60;;;;;;;;;;5052982;28;20753;-63
2022/06/06 04:16:19;;;;;;;17.17;15.57;;;;;;;;;;5052907;28;20448;-62
2022/06/06 04:18:52;;;;;;;16.60;15.40;;;;;;;;;;5052706;28;20534;-63
2022/06/06 04:21:24;;;;;;;16.20;14.80;;;;;;;;;;5053212;28;20448;-62
2022/06/06 04:23:58;;;;;;;16.77;15.23;;;;;;;;;;5052761;28;20480;-62
2022/06/06 04:26:29;;;;;;;16.07;14.57;;;;;;;;;;5053103;28;20451;-63
2022/06/06 04:29:01;;;;;;;15.83;14.63;;;;;;;;;;5052748;28;20842;-62
2022/06/06 04:31:35;;;;;;;16.47;15.30;;;;;;;;;;5052615;28;20480;-62
2022/06/06 04:34:07;;;;;;;15.70;14.50;;;;;;;;;;5053043;28;20454;-62
2022/06/06 04:36:35;;;;;;;14.60;13.50;;;;;;;;;;5052878;28;20448;-62
2022/06/06 04:39:06;;;;;;;13.83;12.73;;;;;;;;;;5055572;28;20883;-62
2022/06/06 04:41:37;;;;;;;13.87;12.83;;;;;;;;;;5056660;28;20882;-62
2022/06/06 04:44:09;;;;;;;13.70;12.63;;;;;;;;;;5056227;28;20605;-63
2022/06/06 04:46:42;;;;;;;13.27;12.27;;;;;;;;;;5056678;28;20448;-63
2022/06/06 04:49:10;;;;;;;13.27;12.17;;;;;;;;;;5056837;28;20816;-63
2022/06/06 04:51:38;;;;;;;12.37;11.47;;;;;;;;;;5056419;28;20459;-63
2022/06/06 04:54:05;;;;;;;12.90;11.70;;;;;;;;;;5056285;28;20458;-63
2022/06/06 04:56:33;;;;;;;12.43;11.53;;;;;;;;;;5056183;28;20448;-63
2022/06/06 04:59:01;;;;;;;12.60;11.50;;;;;;;;;;5056352;28;20891;-63
2022/06/06 05:01:29;;;;;;;13.13;12.13;;;;;;;;;;5056229;28;20450;-63
2022/06/06 05:03:57;;;;;;;12.17;11.27;;;;;;;;;;5056097;28;20484;-63
2022/06/06 05:06:39;;;;;;;13.20;12.27;;;;;;;;;;5056064;28;20547;-63
2022/06/06 05:09:11;;;;;;;12.53;11.63;;;;;;;;;;5055071;28;20451;-63
2022/06/06 05:11:42;;;;;;;12.57;11.53;;;;;;;;;;5056160;28;20448;-64
2022/06/06 05:14:23;;;;;;;12.20;11.30;;;;;;;;;;5056077;28;20911;-63
2022/06/06 05:16:59;;;;;;;13.33;12.33;;;;;;;;;;5055987;28;20514;-63
2022/06/06 05:19:39;;;;;;;14.10;12.70;;;;;;;;;;5055778;28;21017;-63
2022/06/06 05:22:15;;;;;;;12.43;11.50;;;;;;;;;;5055907;28;20452;-64
2022/06/06 05:24:49;;;;;;;13.03;12.03;;;;;;;;;;5056000;28;20483;-63
2022/06/06 05:27:26;;;;;;;14.50;13.40;;;;;;;;;;5055676;28;20971;-63
2022/06/06 05:30:01;;;;;;;14.47;13.27;;;;;;;;;;5055616;28;20811;-64
2022/06/06 05:32:38;;;;;;;13.80;12.80;;;;;;;;;;5055892;28;20492;-64
2022/06/06 05:35:09;;;;;;;15.27;14.10;;;;;;;;;;5055654;28;20462;-63
2022/06/06 05:37:42;;;;;;;15.90;14.80;;;;;;;;;;5055774;28;20462;-63
2022/06/06 05:40:15;;;;;;;14.77;13.77;;;;;;;;;;5055489;28;20535;-63
2022/06/06 05:42:53;;;;;;;16.23;15.03;;;;;;;;;;5055382;28;20535;-64
2022/06/06 05:45:23;;;;;;;15.97;14.77;;;;;;;;;;5055391;28;20900;-63
2022/06/06 05:47:54;;;;;;;14.53;13.50;;;;;;;;;;5055619;28;20531;-63
2022/06/06 05:50:31;;;;;;;15.57;14.27;;;;;;;;;;5054272;28;20448;-64
2022/06/06 05:53:07;;;;;;;16.57;15.37;;;;;;;;;;5055429;28;20503;-63
2022/06/06 05:55:44;;;;;;;17.27;15.87;;;;;;;;;;5055330;28;20530;-64
2022/06/06 05:58:21;;;;;;;16.50;15.23;;;;;;;;;;5055260;28;20842;-63
2022/06/06 06:00:53;;;;;;;17.40;16.00;;;;;;;;;;5055004;28;20444;-64
2022/06/06 06:03:29;;;;;;;16.53;15.17;;;;;;;;;;5055442;28;21043;-63
2022/06/06 06:06:05;;;;;;;17.10;15.80;;;;;;;;;;5055144;28;20448;-63
2022/06/06 06:09:05;;;;;;;17.47;16.27;;;;;;;;;;5055072;28;20852;-64
2022/06/06 06:11:41;;;;;;;16.77;15.57;;;;;;;;;;5032660;28;20871;-64
2022/06/06 06:14:12;;;;;;;18.17;16.67;;;;;;;;;;5032640;28;20484;-64
2022/06/06 06:16:43;;;;;;;17.07;15.67;;;;;;;;;;5044360;28;20547;-63
2022/06/06 06:19:11;;;;;;;16.00;14.90;;;;;;;;;;5054754;28;20452;-64
2022/06/06 06:21:42;;;;;;;16.97;15.77;;;;;;;;;;5054596;28;20885;-64
2022/06/06 06:24:10;;;;;;;16.47;15.27;;;;;;;;;;5054516;28;20983;-64
2022/06/06 06:26:38;;;;;;;16.57;15.27;;;;;;;;;;5054644;28;20448;-64
2022/06/06 06:29:06;;;;;;;16.70;15.40;;;;;;;;;;5054611;28;20535;-64
2022/06/06 06:31:41;;;;;;;16.77;15.57;;;;;;;;;;5054517;28;20531;-64
2022/06/06 06:34:24;;;;;;;17.20;16.00;;;;;;;;;;5054654;28;20496;-64
2022/06/06 06:36:57;;;;;;;15.43;14.33;;;;;;;;;;5054606;28;20444;-64
2022/06/06 06:39:44;;;;;;;15.37;14.27;;;;;;;;;;5054383;28;21022;-64
2022/06/06 06:42:16;;;;;;;13.50;12.60;;;;;;;;;;5054352;28;20448;-64
2022/06/06 06:44:48;;;;;;;13.60;12.50;;;;;;;;;;5053995;28;20488;-64
2022/06/06 06:47:17;;;;;;;14.50;13.20;;;;;;;;;;5054575;28;20536;-64
2022/06/06 06:49:46;;;;;;;12.67;11.77;;;;;;;;;;5054325;28;20936;-64
2022/06/06 06:52:19;;;;;;;15.37;14.17;;;;;;;;;;5054126;28;20843;-64
2022/06/06 06:54:55;;;;;;;12.30;11.50;;;;;;;;;;5054083;28;20453;-64
2022/06/06 06:57:30;;;;;;;12.37;11.17;;;;;;;;;;5054123;28;20444;-64
2022/06/06 07:00:03;;;;;;;10.37;9.67;;;;;;;;;;5054092;28;20458;-65
2022/06/06 07:08:34;;;;;;;7.93;7.37;;;;;;;;;;5053772;28;20448;-65
2022/06/06 07:11:08;;;;;;;8.07;7.47;;;;;;;;;;5053747;28;20484;-65
2022/06/06 07:13:45;;;;;;;8.93;8.33;;;;;;;;;;5054141;28;20530;-65
2022/06/06 07:16:18;;;;;;;8.43;7.83;;;;;;;;;;5053987;28;20448;-65
2022/06/06 07:18:47;;;;;;;7.73;7.23;;;;;;;;;;5053769;28;20456;-65
2022/06/06 07:21:15;;;;;;;7.67;7.17;;;;;;;;;;5053589;28;20452;-65
2022/06/06 07:23:43;;;;;;;7.77;7.30;;;;;;;;;;5053360;28;20487;-65
2022/06/06 07:26:12;;;;;;;8.23;7.53;;;;;;;;;;5053330;28;20566;-65
2022/06/06 07:28:39;;;;;;;8.23;7.63;;;;;;;;;;5053251;28;20530;-65
2022/06/06 07:31:11;;;;;;;9.53;8.57;;;;;;;;;;5053461;28;20918;-65
2022/06/06 07:33:47;;;;;;;8.70;8.10;;;;;;;;;;5053214;28;20543;-65
2022/06/06 07:36:18;;;;;;;9.30;8.60;;;;;;;;;;5053350;28;20854;-65
2022/06/06 07:38:51;;;;;;;9.60;8.90;;;;;;;;;;5053154;28;20448;-65
2022/06/06 07:41:23;;;;;;;8.30;7.70;;;;;;;;;;5053414;28;20449;-65
2022/06/06 07:43:59;;;;;;;8.40;7.70;;;;;;;;;;5052962;28;20979;-65
2022/06/06 07:46:31;;;;;;;8.00;7.50;;;;;;;;;;5053122;28;20531;-65
2022/06/06 07:49:03;;;;;;;7.10;6.60;;;;;;;;;;5053086;28;20543;-65
2022/06/06 07:51:37;;;;;;;6.87;6.27;;;;;;;;;;5052959;28;20498;-65
2022/06/06 07:54:12;;;;;;;7.03;6.50;;;;;;;;;;5053200;28;20458;-65
2022/06/06 07:56:45;;;;;;;6.60;6.00;;;;;;;;;;5053061;28;20538;-65
2022/06/06 07:59:19;;;;;;;5.40;5.10;;;;;;;;;;5053009;28;20476;-65
2022/06/06 08:01:51;;;;;;;6.43;6.03;;;;;;;;;;5052819;28;20554;-65
2022/06/06 08:04:24;;;;;;;7.30;6.70;;;;;;;;;;5052596;28;21057;-65
2022/06/06 08:06:55;;;;;;;6.80;6.30;;;;;;;;;;5052951;28;20551;-65
2022/06/06 08:09:31;;;;;;;7.37;6.77;;;;;;;;;;5053053;28;20444;-65
2022/06/06 08:12:05;;;;;;;5.73;5.33;;;;;;;;;;5053457;28;20985;-64
2022/06/06 08:14:37;;;;;;;7.00;6.30;;;;;;;;;;5059401;28;20886;-65
2022/06/06 08:17:08;;;;;;;6.20;5.80;;;;;;;;;;5059533;28;20448;-65
2022/06/06 08:19:40;;;;;;;6.60;6.20;;;;;;;;;;5059498;28;20535;-65
2022/06/06 08:22:08;;;;;;;6.00;5.70;;;;;;;;;;5059436;28;20447;-65
2022/06/06 08:24:38;;;;;;;6.97;6.47;;;;;;;;;;5059165;28;20472;-65
2022/06/06 08:27:08;;;;;;;6.20;5.80;;;;;;;;;;5059517;28;20452;-65
2022/06/06 08:29:36;;;;;;;6.23;5.83;;;;;;;;;;5059454;28;20451;-65
2022/06/06 08:32:05;;;;;;;6.40;5.90;;;;;;;;;;5059405;28;20444;-65
2022/06/06 08:34:33;;;;;;;5.70;5.37;;;;;;;;;;5059405;28;20456;-65
2022/06/06 08:37:09;;;;;;;6.00;5.60;;;;;;;;;;5059268;28;20440;-65
2022/06/06 08:39:42;;;;;;;5.60;5.30;;;;;;;;;;5059458;28;20444;-65
2022/06/06 08:42:19;;;;;;;5.27;4.97;;;;;;;;;;5059146;28;20977;-65
2022/06/06 08:44:55;;;;;;;5.70;5.30;;;;;;;;;;5058963;28;20515;-65
2022/06/06 08:47:29;;;;;;;5.20;4.87;;;;;;;;;;5059169;28;20443;-65
2022/06/06 08:53:02;;;;;;;7.70;6.00;;;;;;;;;;5059167;28;20993;-65
2022/06/06 08:55:40;;;;;;;5.60;5.30;;;;;;;;;;5059121;28;20448;-65
2022/06/06 08:58:17;;;;;;;6.30;5.90;;;;;;;;;;5058955;28;20563;-65
2022/06/06 09:00:49;;;;;;;5.00;4.70;;;;;;;;;;5059422;28;20550;-65
2022/06/06 09:03:40;;;;;;;5.53;5.13;;;;;;;;;;5059062;28;20480;-65
2022/06/06 09:06:25;;;;;;;5.30;5.00;;;;;;;;;;5058802;28;20574;-65
2022/06/06 09:09:10;;;;;;;5.23;4.93;;;;;;;;;;5059246;28;20807;-65
2022/06/06 09:11:47;;;;;;;5.93;5.50;;;;;;;;;;5059034;28;21028;-63
2022/06/06 09:14:33;;;;;;;5.60;5.10;;;;;;;;;;5058766;28;20455;-63
2022/06/06 09:17:19;;;;;;;6.23;5.57;;;;;;;;;;5058581;28;20969;-63
2022/06/06 09:20:08;;;;;;;5.60;5.30;;;;;;;;;;5058616;28;20447;-63
2022/06/06 09:22:48;;;;;;;6.03;5.73;;;;;;;;;;5058716;28;20456;-63
2022/06/06 09:25:34;;;;;;;5.63;5.23;;;;;;;;;;5055820;28;20868;-63
2022/06/06 09:28:22;;;;;;;5.30;5.00;;;;;;;;;;5055674;28;20514;-63
2022/06/06 09:31:05;;;;;;;4.70;4.50;;;;;;;;;;5055487;28;20807;-63
2022/06/06 09:33:47;;;;;;;5.63;5.23;;;;;;;;;;5055158;28;20455;-63
2022/06/06 09:36:23;;;;;;;6.03;5.63;;;;;;;;;;5055400;28;20551;-64
2022/06/06 09:39:07;;;;;;;4.97;4.57;;;;;;;;;;5055268;28;20789;-63
2022/06/06 09:41:37;;;;;;;5.17;4.93;;;;;;;;;;5055429;28;20450;-63
2022/06/06 09:44:06;;;;;;;5.27;4.87;;;;;;;;;;5055052;28;20480;-63
2022/06/06 09:46:51;;;;;;;5.30;5.00;;;;;;;;;;5055161;28;20506;-63
2022/06/06 09:49:33;;;;;;;5.43;5.13;;;;;;;;;;5055318;28;20444;-64
2022/06/06 09:52:13;;;;;;;6.17;5.10;;;;;;;;;;5050141;28;20488;-64
2022/06/06 10:00:50;;;;;;;4.13;3.90;;;;;;;;;;5054712;28;20455;-63
2022/06/06 10:03:35;;;;;;;4.67;4.37;;;;;;;;;;5054863;28;20458;-63
2022/06/06 10:06:16;;;;;;;4.57;4.37;;;;;;;;;;5054623;28;20490;-63
2022/06/06 10:09:02;;;;;;;4.60;4.30;;;;;;;;;;5054594;28;20455;-63
2022/06/06 10:11:44;;;;;;;5.23;4.93;;;;;;;;;;5054635;28;20471;-64
2022/06/06 10:14:27;;;;;;;5.00;4.70;;;;;;;;;;5049986;28;20531;-63
2022/06/06 10:17:03;;;;;;;5.57;4.07;;;;;;;;;;5054603;28;20531;-63
2022/06/06 10:19:51;;;;;;;4.27;3.97;;;;;;;;;;5054221;28;20458;-63
2022/06/06 10:22:36;;;;;;;4.30;4.10;;;;;;;;;;5052311;28;20571;-63
2022/06/06 10:25:13;;;;;;;4.83;4.43;;;;;;;;;;5050355;28;21016;-63
2022/06/06 10:27:48;;;;;;;4.27;4.07;;;;;;;;;;5054120;28;20546;-63
2022/06/06 10:30:20;;;;;;;4.77;4.47;;;;;;;;;;5054195;28;20490;-63
2022/06/06 10:32:57;;;;;;;4.40;4.20;;;;;;;;;;5054004;28;20447;-64
2022/06/06 10:35:30;;;;;;;4.17;3.97;;;;;;;;;;5053762;28;20539;-64
2022/06/06 10:38:03;;;;;;;4.07;3.87;;;;;;;;;;5054359;28;20939;-63
2022/06/06 10:40:45;;;;;;;3.97;3.77;;;;;;;;;;5054157;28;20578;-64
2022/06/06 10:43:18;;;;;;;5.63;4.23;;;;;;;;;;5053826;28;20456;-64
2022/06/06 10:45:48;;;;;;;4.33;4.13;;;;;;;;;;5053879;28;20575;-64
2022/06/06 10:48:18;;;;;;;4.20;3.90;;;;;;;;;;5053899;28;20703;-63
2022/06/06 10:53:58;;;;;;;4.27;3.50;;;;;;;;;;5053694;28;20455;-64
2022/06/06 10:56:45;;;;;;;3.90;3.70;;;;;;;;;;5053772;28;20480;-64
2022/06/06 10:59:32;;;;;;;4.03;3.70;;;;;;;;;;5053811;28;20524;-65
2022/06/06 11:02:17;;;;;;;3.80;3.50;;;;;;;;;;5053343;28;20444;-64
2022/06/06 11:04:57;;;;;;;3.53;3.30;;;;;;;;;;5053552;28;20440;-64
2022/06/06 11:07:44;;;;;;;3.10;3.00;;;;;;;;;;5053547;28;20547;-63
2022/06/06 11:10:30;;;;;;;4.73;4.30;;;;;;;;;;5053154;28;20487;-64
2022/06/06 11:13:12;;;;;;;2.80;2.70;;;;;;;;;;5053013;28;20455;-63
2022/06/06 11:15:42;;;;;;;3.13;3.03;;;;;;;;;;5053061;28;20467;-64
2022/06/06 11:18:22;;;;;;;3.70;3.40;;;;;;;;;;5053180;28;20455;-64
2022/06/06 11:20:59;;;;;;;3.30;3.20;;;;;;;;;;5053158;28;20554;-63
2022/06/06 11:23:28;;;;;;;4.00;3.80;;;;;;;;;;5053269;28;20547;-63
2022/06/06 11:26:10;;;;;;;3.40;3.20;;;;;;;;;;5052966;28;20488;-64
2022/06/06 11:28:53;;;;;;;3.20;3.10;;;;;;;;;;5052911;28;20456;-63
2022/06/06 11:31:40;;;;;;;3.60;3.40;;;;;;;;;;5052730;28;20543;-63
2022/06/06 11:34:19;;;;;;;3.43;3.23;;;;;;;;;;5052963;28;20448;-63
2022/06/06 11:37:00;;;;;;;3.20;3.00;;;;;;;;;;5053057;28;20444;-63
2022/06/06 11:39:47;;;;;;;3.30;3.10;;;;;;;;;;5051640;28;20480;-63
2022/06/06 11:42:29;;;;;;;3.53;3.33;;;;;;;;;;5052890;28;20448;-63
2022/06/06 11:45:16;;;;;;;5.37;5.07;;;;;;;;;;5052311;28;20470;-63
2022/06/06 11:47:53;;;;;;;3.37;3.10;;;;;;;;;;5051622;28;20455;-63
2022/06/06 11:50:30;;;;;;;3.10;2.90;;;;;;;;;;5052682;28;20538;-63
2022/06/06 11:53:14;;;;;;;3.10;2.80;;;;;;;;;;5052463;28;21046;-63
2022/06/06 11:55:59;;;;;;;2.83;2.73;;;;;;;;;;5052467;28;20535;-64
2022/06/06 11:58:42;;;;;;;2.63;2.43;;;;;;;;;;5052443;28;20464;-63
2022/06/06 12:01:20;;;;;;;3.47;3.27;;;;;;;;;;5052556;28;20448;-64
2022/06/06 12:03:56;;;;;;;4.10;3.13;;;;;;;;;;5052637;28;20806;-63
2022/06/06 12:06:32;;;;;;;3.53;3.33;;;;;;;;;;5052386;28;20487;-64
2022/06/06 12:09:13;;;;;;;3.07;2.90;;;;;;;;;;5052298;28;20467;-64
2022/06/06 12:11:58;;;;;;;2.87;2.77;;;;;;;;;;5052611;28;20502;-63
2022/06/06 12:14:33;;;;;;;3.53;3.23;;;;;;;;;;5041153;28;20445;-64
2022/06/06 12:17:05;;;;;;;3.23;3.03;;;;;;;;;;5052247;28;20551;-64
2022/06/06 12:19:42;;;;;;;3.13;3.00;;;;;;;;;;5052358;28;20932;-64
2022/06/06 12:22:25;;;;;;;5.50;2.90;;;;;;;;;;5051903;28;20444;-64
2022/06/06 12:25:03;;;;;;;2.90;2.70;;;;;;;;;;5052138;28;20466;-64
2022/06/06 12:27:36;;;;;;;2.90;2.80;;;;;;;;;;5052200;28;20458;-65
2022/06/06 12:30:10;;;;;;;2.60;2.40;;;;;;;;;;5052052;28;20499;-66
2022/06/06 12:32:47;;;;;;;3.10;2.90;;;;;;;;;;5051998;28;20475;-64
2022/06/06 12:35:17;;;;;;;2.80;2.60;;;;;;;;;;5051935;28;20440;-63
2022/06/06 12:37:53;;;;;;;2.93;2.60;;;;;;;;;;5052012;28;20476;-64
2022/06/06 12:40:22;;;;;;;2.87;2.67;;;;;;;;;;5052132;28;20806;-63
2022/06/06 12:42:54;;;;;;;2.93;2.70;;;;;;;;;;5051697;28;20539;-65
2022/06/06 12:45:39;;;;;;;2.53;2.43;;;;;;;;;;5051525;28;20879;-63
2022/06/06 12:48:18;;;;;;;4.40;3.07;;;;;;;;;;5052233;28;20455;-64
2022/06/06 12:50:51;;;;;;;2.83;2.73;;;;;;;;;;5052248;28;20800;-64
2022/06/06 12:53:26;;;;;;;2.53;2.33;;;;;;;;;;5051895;28;20444;-64
2022/06/06 12:56:17;;;;;;;5.23;2.47;;;;;;;;;;5052312;28;20454;-63
2022/06/06 12:58:45;;;;;;;2.87;2.63;;;;;;;;;;5052618;28;20451;-64
2022/06/06 13:01:39;;;;;;;2.70;2.50;;;;;;;;;;5055846;28;20456;-64
2022/06/06 13:04:24;;;;;;;2.60;2.40;;;;;;;;;;5055496;28;20502;-64
2022/06/06 13:06:56;;;;;;;3.10;2.80;;;;;;;;;;5055519;28;21006;-64
2022/06/06 13:09:35;;;;;;;3.30;3.00;;;;;;;;;;5055558;28;20856;-64
2022/06/06 13:12:08;;;;;;;3.10;2.87;;;;;;;;;;5055619;28;20479;-64
2022/06/06 13:14:42;;;;;;;4.93;4.63;;;;;;;;;;5055829;28;20459;-64
2022/06/06 13:17:18;;;;;;;3.07;2.90;;;;;;;;;;5055216;28;20458;-64
2022/06/06 13:19:50;;;;;;;4.60;2.17;;;;;;;;;;5055141;28;20793;-63
2022/06/06 13:22:26;;;;;;;2.83;2.63;;;;;;;;;;5055402;28;20527;-64
2022/06/06 13:25:14;;;;;;;3.67;3.40;;;;;;;;;;5055043;28;20458;-64
2022/06/06 13:28:00;;;;;;;3.27;3.17;;;;;;;;;;5053222;28;20524;-64
2022/06/06 13:30:28;;;;;;;2.27;2.17;;;;;;;;;;5055062;28;20506;-64
2022/06/06 13:33:01;;;;;;;3.23;2.80;;;;;;;;;;5054884;28;20872;-64
2022/06/06 13:35:32;;;;;;;2.80;2.60;;;;;;;;;;5055216;28;20860;-64
2022/06/06 13:38:12;;;;;;;3.87;3.57;;;;;;;;;;5054977;28;20470;-64
2022/06/06 13:40:42;;;;;;;2.67;2.47;;;;;;;;;;5055126;28;20517;-64
2022/06/06 13:43:21;;;;;;;2.57;2.47;;;;;;;;;;5055066;28;20440;-64
2022/06/06 13:45:49;;;;;;;2.83;2.57;;;;;;;;;;5054499;28;20486;-64
2022/06/06 13:48:33;;;;;;;2.77;2.50;;;;;;;;;;5054599;28;20939;-64
2022/06/06 13:51:03;;;;;;;2.17;1.97;;;;;;;;;;5054925;28;20539;-64
2022/06/06 13:53:37;;;;;;;1.90;1.80;;;;;;;;;;5054687;28;20456;-63
2022/06/06 13:56:15;;;;;;;2.20;2.10;;;;;;;;;;5054562;28;20456;-63
2022/06/06 13:58:54;;;;;;;2.00;1.90;;;;;;;;;;5054786;28;20535;-64
2022/06/06 14:01:29;;;;;;;2.17;2.07;;;;;;;;;;5054728;28;20440;-64
2022/06/06 14:04:03;;;;;;;3.83;3.10;;;;;;;;;;5054630;28;20459;-64
2022/06/06 14:06:51;;;;;;;2.10;2.00;;;;;;;;;;5054526;28;20519;-64
2022/06/06 14:09:18;;;;;;;2.30;2.10;;;;;;;;;;5052684;28;20456;-64
2022/06/06 14:11:52;;;;;;;2.13;2.03;;;;;;;;;;5053648;28;20506;-64
2022/06/06 14:14:21;;;;;;;2.87;2.57;;;;;;;;;;5054853;28;20455;-63
2022/06/06 14:16:50;;;;;;;2.30;2.20;;;;;;;;;;5054293;28;20484;-63
2022/06/06 14:19:19;;;;;;;2.50;2.30;;;;;;;;;;5054617;28;21118;-64
2022/06/06 14:21:50;;;;;;;2.40;2.20;;;;;;;;;;5054258;28;20456;-64
2022/06/06 14:24:18;;;;;;;2.10;1.90;;;;;;;;;;5054357;28;20455;-64
2022/06/06 14:26:50;;;;;;;2.07;1.97;;;;;;;;;;5054033;28;20844;-64
2022/06/06 14:29:25;;;;;;;2.50;2.30;;;;;;;;;;5054227;28;20461;-64
2022/06/06 14:31:54;;;;;;;2.90;2.60;;;;;;;;;;5054273;28;20455;-64
2022/06/06 14:34:27;;;;;;;2.60;2.50;;;;;;;;;;5054014;28;20793;-63
2022/06/06 14:37:09;;;;;;;2.30;2.20;;;;;;;;;;5053978;28;20456;-64
2022/06/06 14:39:36;;;;;;;2.60;2.40;;;;;;;;;;5053787;28;20448;-64
2022/06/06 14:42:05;;;;;;;3.33;2.47;;;;;;;;;;5054149;28;20483;-64
2022/06/06 14:44:34;;;;;;;2.50;2.30;;;;;;;;;;5054179;28;20546;-64
2022/06/06 14:47:08;;;;;;;2.33;2.13;;;;;;;;;;5053922;28;20484;-64
2022/06/06 14:49:38;;;;;;;3.43;2.40;;;;;;;;;;5054132;28;20929;-63
2022/06/06 14:52:13;;;;;;;2.70;2.10;;;;;;;;;;5053757;28;20960;-63
2022/06/06 14:54:41;;;;;;;2.47;2.23;;;;;;;;;;5053610;28;20555;-64
2022/06/06 14:57:12;;;;;;;2.33;2.10;;;;;;;;;;5053761;28;20444;-64
2022/06/06 14:59:43;;;;;;;1.97;1.87;;;;;;;;;;5053684;28;20452;-64
2022/06/06 15:02:12;;;;;;;2.43;2.23;;;;;;;;;;5053512;28;20452;-64
2022/06/06 15:04:41;;;;;;;2.17;2.07;;;;;;;;;;5053240;28;20865;-64
2022/06/06 15:07:07;;;;;;;2.23;2.00;;;;;;;;;;5053395;28;20488;-63
2022/06/06 15:09:39;;;;;;;2.13;1.67;;;;;;;;;;5053639;28;20448;-63
2022/06/06 15:12:06;;;;;;;2.10;1.90;;;;;;;;;;5053289;28;20452;-64
2022/06/06 15:14:34;;;;;;;1.97;1.87;;;;;;;;;;5053338;28;20474;-63
2022/06/06 15:17:04;;;;;;;2.03;1.93;;;;;;;;;;5053071;28;20448;-63
2022/06/06 15:19:45;;;;;;;1.80;1.70;;;;;;;;;;5053115;28;20450;-64
2022/06/06 15:22:20;;;;;;;1.80;1.30;;;;;;;;;;5053028;28;20452;-63
2022/06/06 15:24:47;;;;;;;3.67;1.90;;;;;;;;;;5053152;28;20509;-63
2022/06/06 15:27:25;;;;;;;2.00;1.73;;;;;;;;;;5052883;28;20484;-64
2022/06/06 15:29:57;;;;;;;1.73;1.63;;;;;;;;;;5052817;28;20555;-64
2022/06/06 15:32:26;;;;;;;1.87;1.73;;;;;;;;;;5053092;28;20451;-64
2022/06/06 15:35:00;;;;;;;1.93;1.83;;;;;;;;;;5053067;28;20448;-63
2022/06/06 15:37:36;;;;;;;4.13;3.73;;;;;;;;;;5052887;28;20448;-64